createdAt,value
2023-05-11T00:01:10.661Z,42.30
2023-05-11T00:04:08.526Z,42.60
2023-05-11T00:07:06.532Z,39.40
2023-05-11T00:10:04.487Z,41.80
2023-05-11T00:13:02.411Z,42.00
2023-05-11T00:16:00.499Z,42.20
2023-05-11T00:18:58.408Z,42.50
2023-05-11T00:21:56.350Z,42.00
2023-05-11T00:24:54.095Z,41.60
2023-05-11T00:27:52.010Z,41.70
2023-05-11T00:30:49.784Z,43.70
2023-05-11T00:33:47.702Z,42.50
2023-05-11T00:36:45.965Z,42.00
2023-05-11T00:39:43.875Z,43.30
2023-05-11T00:42:41.705Z,44.40
2023-05-11T00:45:40.614Z,44.10
2023-05-11T00:48:38.593Z,45.90
2023-05-11T00:51:37.548Z,44.20
2023-05-11T00:54:37.373Z,43.20
2023-05-11T00:57:36.972Z,45.40
2023-05-11T01:00:34.948Z,44.50
2023-05-11T01:03:33.926Z,46.10
2023-05-11T01:06:47.121Z,47.10
2023-05-11T01:10:00.812Z,47.30
2023-05-11T01:13:11.078Z,44.60
2023-05-11T01:16:18.768Z,45.80
2023-05-11T01:19:39.494Z,45.40
2023-05-11T01:23:05.486Z,46.30
2023-05-11T01:26:32.847Z,46.20
2023-05-11T01:29:47.484Z,46.80
2023-05-11T01:32:46.861Z,45.00
2023-05-11T01:35:53.579Z,45.70
2023-05-11T01:38:53.582Z,45.30
2023-05-11T01:41:55.023Z,49.60
2023-05-11T01:44:55.727Z,47.70
2023-05-11T01:47:55.982Z,49.50
2023-05-11T01:50:54.725Z,47.40
2023-05-11T01:53:54.248Z,47.60
2023-05-11T01:56:52.863Z,42.90
2023-05-11T01:59:52.999Z,40.10
2023-05-11T02:02:51.387Z,41.30
2023-05-11T02:05:51.078Z,41.30
2023-05-11T02:08:51.068Z,41.50
2023-05-11T02:11:50.690Z,41.50
2023-05-11T02:14:52.103Z,40.60
2023-05-11T02:17:52.866Z,38.60
2023-05-11T02:20:51.471Z,38.60
2023-05-11T02:23:51.968Z,39.00
2023-05-11T02:26:49.809Z,38.90
2023-05-11T02:29:47.879Z,39.40
2023-05-11T02:32:52.335Z,40.20
2023-05-11T02:35:54.912Z,38.10
2023-05-11T02:38:59.439Z,37.60
2023-05-11T02:42:01.302Z,37.60
2023-05-11T02:45:05.682Z,38.00
2023-05-11T02:48:09.036Z,38.10
2023-05-11T02:51:10.794Z,38.10
2023-05-11T02:54:11.609Z,38.60
2023-05-11T02:57:09.675Z,38.20
2023-05-11T03:00:09.175Z,38.90
2023-05-11T03:03:07.378Z,36.20
2023-05-11T03:06:05.588Z,38.10
2023-05-11T03:09:03.582Z,35.80
2023-05-11T03:12:03.057Z,36.30
2023-05-11T03:15:01.697Z,34.00
2023-05-11T03:18:02.683Z,35.10
2023-05-11T03:21:02.528Z,36.20
2023-05-11T03:24:01.609Z,38.30
2023-05-11T03:27:00.409Z,36.90
2023-05-11T03:29:59.386Z,38.40
2023-05-11T03:32:57.691Z,38.60
2023-05-11T03:35:56.172Z,37.60
2023-05-11T03:38:57.104Z,36.60
2023-05-11T03:41:56.475Z,37.00
2023-05-11T03:44:59.011Z,34.50
2023-05-11T03:47:58.211Z,35.20
2023-05-11T03:50:56.688Z,34.40
2023-05-11T03:53:54.811Z,34.20
2023-05-11T03:56:52.941Z,33.70
2023-05-11T03:59:50.843Z,33.70
2023-05-11T04:02:48.877Z,33.10
2023-05-11T04:05:47.496Z,33.50
2023-05-11T04:08:45.769Z,33.70
2023-05-11T04:11:43.680Z,33.80
2023-05-11T04:14:44.957Z,35.10
2023-05-11T04:17:42.903Z,35.50
2023-05-11T04:20:40.691Z,34.70
2023-05-11T04:23:38.895Z,34.30
2023-05-11T04:26:36.700Z,34.20
2023-05-11T04:29:34.606Z,36.20
2023-05-11T04:32:32.398Z,35.00
2023-05-11T04:35:30.318Z,36.20
2023-05-11T04:38:28.277Z,35.60
2023-05-11T04:41:26.669Z,34.80
2023-05-11T04:44:24.461Z,36.10
2023-05-11T04:47:22.452Z,32.90
2023-05-11T04:50:20.427Z,32.30
2023-05-11T04:53:18.520Z,33.40
2023-05-11T04:56:16.288Z,33.10
2023-05-11T04:59:14.262Z,35.30
2023-05-11T05:02:12.058Z,32.00
2023-05-11T05:05:10.417Z,30.70
2023-05-11T05:08:08.246Z,31.90
2023-05-11T05:11:06.276Z,32.60
2023-05-11T05:14:04.116Z,30.60
2023-05-11T05:17:02.086Z,30.90
2023-05-11T05:20:00.136Z,29.50
2023-05-11T05:22:59.573Z,29.10
2023-05-11T05:25:57.376Z,29.70
2023-05-11T05:28:55.316Z,31.70
2023-05-11T05:31:53.146Z,32.50
2023-05-11T05:34:51.277Z,31.60
2023-05-11T05:37:49.103Z,31.70
2023-05-11T05:40:47.047Z,32.60
2023-05-11T05:43:44.855Z,32.40
2023-05-11T05:46:42.819Z,32.20
2023-05-11T05:49:40.633Z,32.20
2023-05-11T05:52:39.248Z,31.40
2023-05-11T05:55:37.092Z,31.00
2023-05-11T05:58:34.977Z,33.20
2023-05-11T06:01:33.545Z,33.40
2023-05-11T06:04:31.580Z,32.40
2023-05-11T06:07:29.504Z,31.80
2023-05-11T06:10:28.608Z,31.60
2023-05-11T06:13:26.463Z,31.40
2023-05-11T06:16:25.935Z,31.70
2023-05-11T06:19:23.775Z,31.90
2023-05-11T06:22:21.688Z,32.30
2023-05-11T06:25:19.485Z,32.00
2023-05-11T06:28:17.456Z,31.70
2023-05-11T06:31:16.349Z,32.00
2023-05-11T06:34:14.303Z,32.40
2023-05-11T06:37:12.109Z,31.60
2023-05-11T06:40:10.842Z,31.50
2023-05-11T06:43:08.864Z,31.20
2023-05-11T06:46:06.813Z,30.00
2023-05-11T06:49:04.708Z,30.00
2023-05-11T06:52:02.645Z,31.40
2023-05-11T06:55:00.448Z,31.70
2023-05-11T06:57:58.349Z,31.30
2023-05-11T07:00:56.986Z,31.50
2023-05-11T07:03:56.423Z,31.50
2023-05-11T07:06:54.348Z,31.20
2023-05-11T07:09:52.253Z,30.50
2023-05-11T07:12:51.017Z,31.20
2023-05-11T07:15:50.340Z,31.60
2023-05-11T07:18:48.242Z,31.10
2023-05-11T07:21:46.219Z,30.20
2023-05-11T07:24:44.104Z,30.00
2023-05-11T07:27:41.938Z,29.90
2023-05-11T07:30:39.723Z,29.10
2023-05-11T07:33:40.133Z,29.10
2023-05-11T07:36:37.983Z,28.90
2023-05-11T07:39:35.942Z,29.10
2023-05-11T07:42:33.843Z,28.80
2023-05-11T07:45:32.226Z,29.40
2023-05-11T07:48:33.084Z,29.00
2023-05-11T07:51:31.381Z,28.10
2023-05-11T07:54:29.218Z,28.60
2023-05-11T07:57:27.891Z,29.50
2023-05-11T08:00:25.822Z,28.00
2023-05-11T08:03:23.949Z,27.30
2023-05-11T08:06:21.793Z,27.50
2023-05-11T08:09:19.794Z,27.70
2023-05-11T08:12:17.850Z,27.70
2023-05-11T08:15:15.971Z,27.50
2023-05-11T08:18:13.855Z,28.00
2023-05-11T08:21:12.203Z,26.90
2023-05-11T08:24:10.376Z,27.50
2023-05-11T08:27:08.299Z,28.60
2023-05-11T08:30:07.466Z,27.80
2023-05-11T08:33:22.904Z,27.80
2023-05-11T08:36:24.085Z,27.20
2023-05-11T08:39:38.986Z,27.10
2023-05-11T08:42:46.102Z,27.30
2023-05-11T08:45:48.708Z,27.30
2023-05-11T08:48:46.544Z,27.30
2023-05-11T08:51:44.459Z,27.40
2023-05-11T08:54:42.292Z,27.20
2023-05-11T08:57:41.950Z,28.50
2023-05-11T09:00:39.717Z,27.60
2023-05-11T09:03:40.103Z,28.20
2023-05-11T09:06:39.143Z,27.30
2023-05-11T09:09:37.499Z,27.60
2023-05-11T09:12:36.681Z,27.70
2023-05-11T09:15:38.166Z,27.60
2023-05-11T09:18:36.363Z,27.80
2023-05-11T09:21:34.920Z,27.50
2023-05-11T09:24:33.456Z,27.60
2023-05-11T09:27:31.889Z,27.40
2023-05-11T09:30:29.825Z,27.40
2023-05-11T09:33:27.718Z,27.50
2023-05-11T09:36:25.592Z,27.40
2023-05-11T09:39:44.779Z,27.90
2023-05-11T09:42:57.254Z,27.10
2023-05-11T09:45:57.147Z,27.10
2023-05-11T09:49:01.345Z,26.60
2023-05-11T09:52:02.305Z,26.80
2023-05-11T09:55:11.487Z,26.70
2023-05-11T09:58:10.755Z,27.00
2023-05-11T10:01:08.598Z,27.50
2023-05-11T10:04:21.523Z,27.80
2023-05-11T10:07:29.908Z,29.60
2023-05-11T10:10:30.675Z,28.50
2023-05-11T10:13:30.119Z,27.00
2023-05-11T10:16:28.984Z,27.40
2023-05-11T10:19:27.462Z,27.20
2023-05-11T10:22:27.109Z,27.20
2023-05-11T10:25:27.053Z,27.30
2023-05-11T10:28:25.347Z,27.00
2023-05-11T10:31:25.097Z,27.50
2023-05-11T10:34:24.722Z,27.10
2023-05-11T10:37:23.305Z,29.40
2023-05-11T10:40:21.618Z,27.90
2023-05-11T10:43:37.587Z,27.00
2023-05-11T10:46:53.461Z,28.60
2023-05-11T10:50:13.892Z,28.00
2023-05-11T10:53:29.687Z,29.40
2023-05-11T10:56:49.411Z,29.80
2023-05-11T11:00:12.626Z,28.50
2023-05-11T11:03:12.453Z,27.30
2023-05-11T11:06:24.904Z,28.80
2023-05-11T11:09:22.743Z,28.80
2023-05-11T11:12:21.874Z,30.30
2023-05-11T11:15:19.989Z,32.30
2023-05-11T11:18:28.059Z,30.40
2023-05-11T11:21:42.859Z,28.50
2023-05-11T11:24:46.260Z,27.80
2023-05-11T11:27:59.632Z,28.30
2023-05-11T11:31:24.197Z,28.10
2023-05-11T11:34:34.731Z,27.20
2023-05-11T11:38:00.889Z,27.60
2023-05-11T11:40:58.745Z,32.30
2023-05-11T11:43:56.805Z,27.10
2023-05-11T11:47:27.388Z,26.70
2023-05-11T11:50:29.347Z,28.50
2023-05-11T11:54:02.612Z,26.60
2023-05-11T11:57:00.888Z,30.90
2023-05-11T12:00:00.121Z,27.10
2023-05-11T12:02:59.243Z,27.70
2023-05-11T12:06:02.331Z,27.50
2023-05-11T12:09:00.363Z,27.40
2023-05-11T12:11:59.109Z,27.90
2023-05-11T12:14:57.207Z,27.40
2023-05-11T12:17:55.962Z,27.20
2023-05-11T12:20:53.901Z,27.40
2023-05-11T12:24:02.544Z,27.90
2023-05-11T12:27:04.309Z,28.30
2023-05-11T12:30:02.980Z,27.90
2023-05-11T12:33:04.839Z,28.00
2023-05-11T12:36:02.679Z,28.60
2023-05-11T12:39:01.195Z,28.80
2023-05-11T12:41:59.073Z,29.80
2023-05-11T12:44:57.146Z,28.20
2023-05-11T12:47:56.937Z,28.20
2023-05-11T12:50:54.870Z,28.50
2023-05-11T12:53:52.681Z,28.80
2023-05-11T12:56:50.656Z,28.50
2023-05-11T12:59:48.482Z,28.60
2023-05-11T13:02:52.595Z,28.80
2023-05-11T13:05:51.370Z,28.70
2023-05-11T13:08:49.317Z,29.10
2023-05-11T13:11:47.073Z,29.30
2023-05-11T13:14:47.422Z,29.50
2023-05-11T13:17:45.879Z,40.00
2023-05-11T13:20:45.795Z,34.80
2023-05-11T13:23:49.319Z,34.30
2023-05-11T13:26:47.965Z,36.30
2023-05-11T13:29:45.981Z,36.60
2023-05-11T13:32:43.973Z,38.10
2023-05-11T13:35:42.967Z,38.00
2023-05-11T13:38:41.656Z,38.20
2023-05-11T13:41:39.703Z,38.40
2023-05-11T13:44:38.187Z,39.40
2023-05-11T13:47:36.503Z,39.50
2023-05-11T13:50:34.498Z,39.90
2023-05-11T13:53:32.332Z,40.00
2023-05-11T13:56:30.451Z,40.50
2023-05-11T13:59:28.278Z,40.60
2023-05-11T14:02:26.260Z,39.60
2023-05-11T14:05:24.498Z,39.70
2023-05-11T14:08:22.980Z,39.90
2023-05-11T14:11:21.983Z,41.00
2023-05-11T14:14:20.666Z,41.20
2023-05-11T14:17:18.509Z,42.30
2023-05-11T14:20:17.594Z,41.00
2023-05-11T14:23:16.013Z,42.20
2023-05-11T14:26:13.977Z,41.60
2023-05-11T14:29:11.974Z,39.90
2023-05-11T14:32:10.996Z,41.40
2023-05-11T14:35:09.661Z,39.60
2023-05-11T14:38:07.838Z,38.90
2023-05-11T14:41:06.562Z,39.50
2023-05-11T14:44:05.321Z,39.60
2023-05-11T14:47:03.222Z,41.20
2023-05-11T14:50:01.328Z,40.20
2023-05-11T14:52:59.466Z,41.60
2023-05-11T14:55:58.001Z,41.30
2023-05-11T14:58:56.199Z,41.10
2023-05-11T15:01:54.259Z,40.50
2023-05-11T15:04:52.361Z,40.60
2023-05-11T15:07:50.250Z,40.90
2023-05-11T15:10:48.878Z,42.40
2023-05-11T15:13:48.228Z,42.60
2023-05-11T15:16:46.673Z,43.40
2023-05-11T15:19:44.573Z,42.70
2023-05-11T15:22:42.427Z,43.20
2023-05-11T15:25:40.625Z,44.70
2023-05-11T15:28:38.431Z,42.90
2023-05-11T15:31:36.696Z,41.20
2023-05-11T15:34:37.534Z,40.90
2023-05-11T15:37:42.900Z,40.90
2023-05-11T15:40:40.675Z,41.10
2023-05-11T15:43:38.634Z,40.80
2023-05-11T15:46:37.217Z,41.10
2023-05-11T15:49:35.573Z,41.70
2023-05-11T15:52:33.738Z,42.00
2023-05-11T15:55:31.666Z,41.00
2023-05-11T15:58:30.417Z,40.70
2023-05-11T16:01:28.588Z,41.30
2023-05-11T16:04:26.573Z,40.70
2023-05-11T16:07:24.636Z,40.50
2023-05-11T16:10:24.442Z,39.90
2023-05-11T16:13:23.451Z,41.00
2023-05-11T16:16:21.708Z,41.20
2023-05-11T16:19:19.848Z,41.80
2023-05-11T16:22:18.002Z,42.20
2023-05-11T16:25:16.321Z,41.00
2023-05-11T16:28:14.356Z,41.50
2023-05-11T16:31:12.946Z,41.70
2023-05-11T16:34:10.899Z,41.90
2023-05-11T16:37:09.194Z,42.10
2023-05-11T16:40:08.010Z,42.10
2023-05-11T16:43:06.771Z,42.70
2023-05-11T16:46:04.571Z,42.00
2023-05-11T16:49:02.486Z,41.90
2023-05-11T16:52:01.286Z,42.90
2023-05-11T16:54:59.363Z,42.70
2023-05-11T16:57:57.524Z,43.10
2023-05-11T17:00:55.469Z,43.10
2023-05-11T17:03:53.433Z,43.30
2023-05-11T17:06:51.574Z,44.00
2023-05-11T17:09:52.807Z,44.30
2023-05-11T17:12:51.177Z,43.80
2023-05-11T17:15:49.348Z,43.70
2023-05-11T17:18:47.908Z,43.70
2023-05-11T17:21:46.175Z,43.40
2023-05-11T17:24:44.362Z,43.50
2023-05-11T17:27:43.014Z,43.40
2023-05-11T17:33:45.128Z,43.50
2023-05-11T17:36:44.391Z,43.60
2023-05-11T17:39:42.458Z,43.00
2023-05-11T17:42:40.473Z,43.70
2023-05-11T17:45:38.614Z,43.20
2023-05-11T17:48:37.648Z,43.70
2023-05-11T17:51:36.080Z,43.20
2023-05-11T17:54:34.055Z,43.00
2023-05-11T17:57:32.060Z,43.00
2023-05-11T18:00:30.597Z,43.40
2023-05-11T18:03:28.677Z,42.80
2023-05-11T18:06:26.651Z,42.40
2023-05-11T18:09:24.611Z,43.00
2023-05-11T18:12:23.032Z,42.70
2023-05-11T18:15:21.032Z,43.00
2023-05-11T18:18:19.183Z,41.40
2023-05-11T18:21:18.376Z,41.60
2023-05-11T18:24:17.691Z,41.40
2023-05-11T18:27:15.787Z,41.70
2023-05-11T18:30:14.141Z,41.10
2023-05-11T18:33:12.087Z,41.30
2023-05-11T18:36:10.351Z,41.50
2023-05-11T18:39:08.177Z,41.20
2023-05-11T18:42:06.602Z,41.80
2023-05-11T18:45:06.221Z,41.10
2023-05-11T18:48:04.538Z,40.50
2023-05-11T18:51:02.570Z,40.30
2023-05-11T18:54:00.493Z,40.60
2023-05-11T18:56:58.950Z,40.40
2023-05-11T18:59:56.912Z,41.10
2023-05-11T19:02:55.339Z,41.10
2023-05-11T19:05:53.378Z,41.10
2023-05-11T19:08:53.925Z,41.60
2023-05-11T19:11:53.140Z,42.30
2023-05-11T19:14:50.976Z,42.30
2023-05-11T19:17:48.947Z,42.00
2023-05-11T19:20:46.933Z,42.60
2023-05-11T19:23:44.854Z,41.70
2023-05-11T19:26:45.388Z,41.50
2023-05-11T19:29:51.212Z,41.90
2023-05-11T19:32:49.345Z,42.00
2023-05-11T19:35:47.259Z,42.60
2023-05-11T19:38:45.163Z,42.50
2023-05-11T19:41:43.052Z,42.70
2023-05-11T19:44:44.005Z,41.90
2023-05-11T19:47:42.030Z,42.00
2023-05-11T19:50:40.822Z,41.50
2023-05-11T19:53:39.010Z,41.60
2023-05-11T19:56:36.906Z,41.30
2023-05-11T19:59:34.825Z,41.70
2023-05-11T20:02:33.608Z,40.90
2023-05-11T20:05:31.538Z,41.00
2023-05-11T20:08:29.341Z,41.50
2023-05-11T20:11:27.309Z,41.70
2023-05-11T20:14:25.325Z,41.30
2023-05-11T20:17:23.355Z,41.50
2023-05-11T20:20:21.422Z,42.00
2023-05-11T20:23:19.462Z,42.00
2023-05-11T20:26:17.254Z,41.40
2023-05-11T20:29:15.126Z,41.30
2023-05-11T20:32:13.045Z,40.90
2023-05-11T20:35:11.460Z,41.00
2023-05-11T20:38:09.439Z,41.00
2023-05-11T20:41:08.224Z,41.00
2023-05-11T20:44:06.039Z,40.90
2023-05-11T20:47:04.723Z,41.00
2023-05-11T20:50:02.676Z,40.50
2023-05-11T20:53:00.574Z,40.20
2023-05-11T20:55:58.621Z,40.30
2023-05-11T20:58:57.353Z,40.90
2023-05-11T21:01:55.195Z,40.70
2023-05-11T21:04:53.803Z,40.80
2023-05-11T21:07:51.637Z,41.10
2023-05-11T21:10:49.539Z,41.10
2023-05-11T21:13:47.393Z,40.80
2023-05-11T21:16:45.350Z,41.30
2023-05-11T21:19:43.136Z,42.00
2023-05-11T21:22:41.080Z,41.80
2023-05-11T21:25:38.862Z,41.60
2023-05-11T21:28:39.926Z,41.00
2023-05-11T21:31:38.148Z,41.10
2023-05-11T21:34:36.293Z,41.20
2023-05-11T21:37:34.249Z,41.30
2023-05-11T21:40:32.734Z,41.70
2023-05-11T21:43:31.031Z,41.70
2023-05-11T21:46:29.017Z,41.90
2023-05-11T21:49:26.854Z,42.80
2023-05-11T21:52:24.902Z,42.50
2023-05-11T21:55:23.774Z,42.80
2023-05-11T21:58:21.786Z,42.60
2023-05-11T22:01:19.647Z,42.40
2023-05-11T22:04:17.711Z,41.70
2023-05-11T22:07:15.457Z,42.40
2023-05-11T22:10:13.732Z,41.90
2023-05-11T22:13:11.515Z,41.50
2023-05-11T22:16:09.450Z,41.60
2023-05-11T22:19:07.302Z,41.20
2023-05-11T22:22:05.340Z,40.50
2023-05-11T22:25:03.418Z,40.50
2023-05-11T22:28:01.787Z,41.00
2023-05-11T22:31:00.415Z,40.00
2023-05-11T22:33:59.628Z,39.90
2023-05-11T22:36:57.561Z,40.50
2023-05-11T22:39:55.827Z,39.50
2023-05-11T22:42:53.617Z,39.40
2023-05-11T22:45:51.563Z,40.20
2023-05-11T22:48:49.371Z,40.20
2023-05-11T22:51:47.329Z,40.30
2023-05-11T22:54:45.136Z,40.20
2023-05-11T22:57:43.061Z,40.40
2023-05-11T23:00:41.102Z,42.00
2023-05-11T23:03:39.804Z,41.00
2023-05-11T23:06:37.623Z,41.00
2023-05-11T23:09:35.914Z,41.00
2023-05-11T23:12:33.688Z,41.00
2023-05-11T23:15:32.585Z,41.20
2023-05-11T23:18:31.320Z,41.30
2023-05-11T23:21:29.665Z,41.90
2023-05-11T23:24:29.347Z,41.90
2023-05-11T23:27:27.280Z,41.80
2023-05-11T23:30:25.053Z,41.70
2023-05-11T23:33:23.566Z,42.20
2023-05-11T23:36:21.385Z,42.30
2023-05-11T23:39:19.436Z,42.90
2023-05-11T23:42:17.474Z,43.10
2023-05-11T23:45:15.364Z,42.70
2023-05-11T23:48:13.196Z,43.70
2023-05-11T23:51:11.203Z,44.50
2023-05-11T23:54:09.132Z,42.50
2023-05-11T23:57:07.103Z,42.20
